Time;durP1;ratioP1;P1;durP2;ratioP2;P2;SDS_P1;SDS_P2;PMS_P1;PMS_P2;Temp;Humidity;BMP_temperature;BMP_pressure;BME280_temperature;BME280_humidity;BME280_pressure;Samples;Min_cycle;Max_cycle;Signal;HPM_P1;HPM_P2
2023/12/17 00:00:19;;;;;;;35.05;28.50;;;;;;;9.92;91.41;103739.47;5090328;28;20478;-66
2023/12/17 00:02:44;;;;;;;31.80;27.35;;;;;;;9.91;91.69;103734.97;5084317;28;20029;-66
2023/12/17 00:05:09;;;;;;;29.83;26.00;;;;;;;9.94;91.73;103739.28;5071820;28;20582;-66
2023/12/17 00:07:35;;;;;;;30.45;26.23;;;;;;;9.94;91.76;103737.41;5072582;28;20132;-66
2023/12/17 00:10:00;;;;;;;29.90;26.40;;;;;;;9.97;91.41;103731.47;5091163;28;20032;-66
2023/12/17 00:12:25;;;;;;;29.83;26.52;;;;;;;9.96;91.66;103720.56;5084841;28;20117;-67
2023/12/17 00:14:51;;;;;;;31.50;27.65;;;;;;;9.97;91.47;103720.38;5079528;28;20036;-66
2023/12/17 00:17:16;;;;;;;33.58;27.65;;;;;;;9.98;91.65;103729.56;5068255;28;20032;-67
2023/12/17 00:19:41;;;;;;;31.25;27.45;;;;;;;9.98;91.61;103724.00;5069378;28;20013;-66
2023/12/17 00:22:07;;;;;;;32.72;27.27;;;;;;;9.98;91.66;103721.22;5070663;28;20695;-67
2023/12/17 00:24:32;;;;;;;33.92;28.05;;;;;;;9.96;91.57;103721.41;5070779;28;20028;-66
2023/12/17 00:26:57;;;;;;;30.70;27.27;;;;;;;9.98;91.68;103716.56;5077754;28;20056;-66
2023/12/17 00:29:25;;;;;;;32.78;28.23;;;;;;;9.98;91.65;103715.69;5086711;28;20024;-66
2023/12/17 00:31:50;;;;;;;31.77;27.25;;;;;;;9.98;91.98;103715.69;5079786;28;20454;-66
2023/12/17 00:34:15;;;;;;;31.27;27.02;;;;;;;10.00;91.46;103708.91;5072504;28;20119;-67
2023/12/17 00:36:41;;;;;;;30.67;26.10;;;;;;;9.99;91.33;103709.97;5077887;28;20035;-66
2023/12/17 00:39:07;;;;;;;30.45;26.35;;;;;;;10.00;91.72;103708.91;5072322;28;20035;-66
2023/12/17 00:41:33;;;;;;;30.70;26.63;;;;;;;10.00;91.78;103702.50;5084722;28;20052;-67
2023/12/17 00:43:58;;;;;;;31.65;27.80;;;;;;;9.98;91.64;103697.16;5081081;28;20016;-67
2023/12/17 00:46:24;;;;;;;30.83;26.25;;;;;;;10.00;91.65;103696.97;5087472;28;20039;-66
2023/12/17 00:48:49;;;;;;;31.15;25.83;;;;;;;10.01;91.64;103701.47;5089818;28;20028;-66
2023/12/17 00:51:14;;;;;;;29.58;25.75;;;;;;;9.99;91.64;103704.41;5075067;28;20037;-66
2023/12/17 00:53:40;;;;;;;30.00;25.65;;;;;;;10.02;91.80;103708.72;5076761;28;20035;-67
2023/12/17 00:56:05;;;;;;;30.73;26.92;;;;;;;10.02;91.38;103703.19;5087123;28;20036;-66
2023/12/17 00:58:31;;;;;;;33.75;28.02;;;;;;;9.97;91.66;103703.72;5094979;28;20034;-66
2023/12/17 01:00:56;;;;;;;33.42;28.30;;;;;;;10.00;91.66;103703.38;5093674;28;20532;-66
2023/12/17 01:03:24;;;;;;;34.42;27.30;;;;;;;9.97;91.70;103689.84;5095277;28;20034;-67
2023/12/17 01:05:49;;;;;;;30.98;26.80;;;;;;;10.00;91.79;103696.97;5094668;28;20550;-66
2023/12/17 01:08:14;;;;;;;32.75;27.40;;;;;;;9.95;91.83;103678.09;5094465;28;20111;-66
2023/12/17 01:10:40;;;;;;;31.33;26.05;;;;;;;9.98;91.74;103676.84;5094923;28;20027;-66
2023/12/17 01:13:05;;;;;;;32.75;26.75;;;;;;;10.01;91.43;103674.56;5088928;28;20554;-66
2023/12/17 01:15:30;;;;;;;31.08;26.02;;;;;;;10.02;91.71;103676.31;5089797;28;20044;-67
2023/12/17 01:17:56;;;;;;;32.15;27.52;;;;;;;10.01;91.44;103680.13;5094484;28;20032;-66
2023/12/17 01:20:21;;;;;;;33.72;26.90;;;;;;;10.02;91.54;103676.31;5093878;28;20032;-66
2023/12/17 01:22:52;;;;;;;33.08;27.42;;;;;;;10.04;91.62;103668.66;5094780;28;20032;-67
2023/12/17 01:25:17;;;;;;;33.42;28.65;;;;;;;10.03;91.49;103671.63;5094785;28;20024;-66
2023/12/17 01:27:43;;;;;;;36.17;28.35;;;;;;;10.02;91.39;103669.88;5093590;28;20495;-66
2023/12/17 01:30:08;;;;;;;33.40;28.48;;;;;;;10.01;91.42;103676.47;5089694;28;20043;-66
2023/12/17 01:32:34;;;;;;;34.15;28.02;;;;;;;10.03;91.52;103689.16;5088373;28;20031;-67
2023/12/17 01:34:59;;;;;;;34.88;28.98;;;;;;;10.04;91.55;103690.00;5093643;28;20110;-66
2023/12/17 01:37:24;;;;;;;36.63;27.52;;;;;;;10.02;91.61;103687.41;5094051;28;20063;-66
2023/12/17 01:39:49;;;;;;;35.03;28.77;;;;;;;10.03;91.51;103697.47;5094179;28;20032;-66
2023/12/17 01:42:15;;;;;;;31.25;26.58;;;;;;;10.04;91.29;103701.09;5093705;28;20040;-66
2023/12/17 01:44:41;;;;;;;34.78;28.27;;;;;;;10.04;91.23;103688.09;5092011;28;20077;-66
2023/12/17 01:47:08;;;;;;;35.00;28.48;;;;;;;10.05;91.32;103687.03;5093951;28;20028;-66
2023/12/17 01:49:33;;;;;;;33.40;26.27;;;;;;;10.07;91.44;103701.63;5082218;28;20033;-66
2023/12/17 01:51:58;;;;;;;32.40;25.90;;;;;;;10.06;91.14;103693.44;5090641;28;20035;-66
2023/12/17 01:54:24;;;;;;;33.35;27.30;;;;;;;10.05;91.23;103700.91;5090430;28;20441;-66
2023/12/17 01:56:49;;;;;;;31.25;26.48;;;;;;;10.05;91.11;103698.13;5084386;28;20028;-66
2023/12/17 01:59:15;;;;;;;28.05;23.90;;;;;;;10.08;91.00;103706.09;5090094;28;20030;-66
2023/12/17 02:01:43;;;;;;;30.05;24.52;;;;;;;10.06;91.00;103702.66;5081618;28;20028;-66
2023/12/17 02:04:10;;;;;;;29.25;24.38;;;;;;;10.05;91.12;103708.38;5091125;28;20422;-67
2023/12/17 02:06:35;;;;;;;28.20;24.15;;;;;;;10.06;91.19;103708.22;5073445;28;20119;-66
2023/12/17 02:09:00;;;;;;;29.67;25.17;;;;;;;10.08;90.99;103708.03;5073880;28;20136;-66
2023/12/17 02:11:26;;;;;;;28.75;23.55;;;;;;;10.11;90.87;103712.34;5072879;28;20028;-66
2023/12/17 02:13:51;;;;;;;31.33;25.40;;;;;;;10.09;91.05;103712.50;5073294;28;20373;-66
2023/12/17 02:16:16;;;;;;;28.55;24.30;;;;;;;10.12;90.94;103714.94;5088356;28;20482;-66
2023/12/17 02:18:41;;;;;;;27.52;23.85;;;;;;;10.09;90.73;103705.06;5093336;28;20024;-66
2023/12/17 02:21:07;;;;;;;26.30;22.70;;;;;;;10.12;90.63;103698.28;5093428;28;20020;-66
2023/12/17 02:23:32;;;;;;;30.42;24.67;;;;;;;10.11;90.76;103712.34;5078592;28;20028;-66
2023/12/17 02:25:58;;;;;;;28.83;23.58;;;;;;;10.09;90.56;103704.19;5093368;28;20108;-65
2023/12/17 02:28:23;;;;;;;29.95;24.58;;;;;;;10.09;91.24;103699.50;5092270;28;20475;-66
2023/12/17 02:30:48;;;;;;;28.23;23.60;;;;;;;10.10;90.63;103692.06;5092316;28;20032;-66
2023/12/17 02:33:13;;;;;;;28.67;23.80;;;;;;;10.12;90.64;103686.31;5093533;28;20384;-65
2023/12/17 02:35:39;;;;;;;29.42;23.92;;;;;;;10.13;90.30;103693.59;5093573;28;20047;-66
2023/12/17 02:38:04;;;;;;;29.55;24.77;;;;;;;10.11;90.55;103693.78;5092820;28;20085;-66
2023/12/17 02:40:29;;;;;;;30.88;25.13;;;;;;;10.11;90.48;103693.78;5084234;28;20140;-66
2023/12/17 02:42:54;;;;;;;32.33;25.33;;;;;;;10.11;90.91;103696.56;5087893;28;20024;-66
2023/12/17 02:45:23;;;;;;;30.80;25.35;;;;;;;10.11;90.40;103695.72;5091399;28;20089;-65
2023/12/17 02:47:48;;;;;;;33.40;25.88;;;;;;;10.09;90.90;103695.88;5093127;28;20028;-66
2023/12/17 02:50:13;;;;;;;32.85;26.23;;;;;;;10.09;90.59;103693.09;5092863;28;20024;-65
2023/12/17 02:52:38;;;;;;;33.22;25.35;;;;;;;10.13;90.64;103690.81;5092368;28;20054;-66
2023/12/17 02:55:04;;;;;;;32.45;25.73;;;;;;;10.11;90.64;103681.84;5093193;28;20103;-66
2023/12/17 02:57:30;;;;;;;32.55;25.17;;;;;;;10.13;90.75;103685.28;5092925;28;20036;-66
2023/12/17 02:59:55;;;;;;;32.45;24.92;;;;;;;10.13;90.30;103683.34;5087061;28;20027;-66
2023/12/17 03:02:20;;;;;;;31.30;24.77;;;;;;;10.12;90.70;103694.66;5076176;28;20052;-65
2023/12/17 03:04:47;;;;;;;29.98;23.80;;;;;;;10.13;90.77;103688.03;5085958;28;20046;-66
2023/12/17 03:07:12;;;;;;;29.95;22.80;;;;;;;10.13;90.45;103690.81;5085416;28;20097;-66
2023/12/17 03:09:37;;;;;;;25.85;22.13;;;;;;;10.12;90.63;103675.22;5092505;28;20472;-65
2023/12/17 03:12:03;;;;;;;26.20;21.60;;;;;;;10.11;90.66;103681.84;5071667;28;20024;-65
2023/12/17 03:14:31;;;;;;;26.45;21.60;;;;;;;10.11;90.88;103673.50;5075691;28;20031;-66
2023/12/17 03:16:56;;;;;;;25.63;20.13;;;;;;;10.14;90.73;103678.66;5081031;28;20056;-66
2023/12/17 03:19:22;;;;;;;26.60;20.98;;;;;;;10.11;90.88;103677.13;5074588;28;20060;-66
2023/12/17 03:21:47;;;;;;;24.88;19.05;;;;;;;10.09;90.85;103685.63;5083285;28;20383;-66
2023/12/17 03:24:12;;;;;;;23.20;19.08;;;;;;;10.12;90.67;103681.63;5092042;28;20032;-66
2023/12/17 03:26:38;;;;;;;21.42;18.45;;;;;;;10.13;90.74;103676.94;5086582;28;20044;-66
2023/12/17 03:29:03;;;;;;;23.02;18.48;;;;;;;10.11;90.71;103673.50;5073450;28;20143;-67
2023/12/17 03:31:28;;;;;;;21.55;18.02;;;;;;;10.12;90.73;103661.34;5086570;28;20020;-66
2023/12/17 03:34:00;;;;;;;22.38;17.48;;;;;;;10.10;90.62;103667.09;5090697;28;20115;-66
2023/12/17 03:36:26;;;;;;;19.60;16.92;;;;;;;10.11;90.78;103663.25;5083222;28;20549;-66
2023/12/17 03:38:51;;;;;;;19.17;14.63;;;;;;;10.08;90.74;103667.25;5082829;28;20103;-66
2023/12/17 03:41:24;;;;;;;20.48;15.73;;;;;;;10.09;91.06;103668.97;5076563;28;20106;-66
2023/12/17 03:43:51;;;;;;;18.38;15.13;;;;;;;10.08;90.85;103670.03;5082745;28;20041;-66
2023/12/17 03:46:17;;;;;;;20.33;14.73;;;;;;;10.09;90.65;103659.78;5072265;28;20058;-66
2023/12/17 03:48:42;;;;;;;15.88;14.20;;;;;;;10.06;90.90;103661.03;5071180;28;20387;-66
2023/12/17 03:51:10;;;;;;;15.65;14.00;;;;;;;10.07;90.99;103657.22;5088548;28;20110;-66
2023/12/17 03:53:35;;;;;;;15.40;13.68;;;;;;;10.08;90.63;103653.38;5079989;28;20027;-66
2023/12/17 03:56:09;;;;;;;14.63;13.00;;;;;;;10.08;90.93;103658.06;5086230;28;20024;-66
2023/12/17 03:58:34;;;;;;;14.80;12.98;;;;;;;10.05;91.05;103656.50;5074999;28;20035;-66
2023/12/17 04:01:01;;;;;;;13.60;12.20;;;;;;;10.05;90.99;103650.09;5078207;28;20107;-66
2023/12/17 04:03:26;;;;;;;14.57;12.02;;;;;;;10.03;91.00;103650.28;5087600;28;20020;-66
2023/12/17 04:05:51;;;;;;;13.93;12.43;;;;;;;10.04;90.73;103646.47;5086804;28;20028;-66
2023/12/17 04:08:17;;;;;;;14.32;12.82;;;;;;;10.04;91.17;103637.28;5085412;28;20054;-66
2023/12/17 04:10:42;;;;;;;13.93;12.02;;;;;;;10.02;91.30;103643.03;5087245;28;20048;-66
2023/12/17 04:13:07;;;;;;;15.32;12.55;;;;;;;10.01;91.12;103635.72;5091284;28;20024;-66
2023/12/17 04:15:32;;;;;;;13.85;12.32;;;;;;;10.03;90.87;103632.78;5086767;28;20062;-67
2023/12/17 04:17:58;;;;;;;13.05;11.65;;;;;;;10.03;90.92;103633.63;5083819;28;20044;-66
2023/12/17 04:20:23;;;;;;;13.13;11.73;;;;;;;10.04;90.85;103635.38;5077371;28;20036;-66
2023/12/17 04:22:48;;;;;;;13.93;12.40;;;;;;;10.03;90.64;103633.63;5071256;28;20468;-66
2023/12/17 04:25:14;;;;;;;15.85;11.90;;;;;;;10.02;90.79;103631.91;5077930;28;20030;-66
2023/12/17 04:27:40;;;;;;;13.70;11.40;;;;;;;10.03;90.81;103628.09;5087487;28;20396;-66
2023/12/17 04:30:06;;;;;;;13.40;11.48;;;;;;;10.03;90.69;103628.09;5074102;28;20107;-66
2023/12/17 04:32:31;;;;;;;14.02;12.07;;;;;;;10.00;90.65;103620.13;5071273;28;20033;-66
2023/12/17 04:34:59;;;;;;;14.57;12.15;;;;;;;9.99;90.82;103617.53;5073687;28;20387;-66
2023/12/17 04:37:25;;;;;;;17.20;12.70;;;;;;;10.03;90.85;103621.69;5083609;28;20047;-66
2023/12/17 04:39:50;;;;;;;14.30;12.10;;;;;;;10.02;90.70;103623.59;5072501;28;20029;-66
2023/12/17 04:42:16;;;;;;;14.65;11.93;;;;;;;10.04;90.46;103629.81;5076330;28;20012;-66
2023/12/17 04:44:42;;;;;;;17.17;13.45;;;;;;;10.03;90.32;103625.31;5090703;28;20058;-66
2023/12/17 04:47:07;;;;;;;15.65;13.95;;;;;;;10.01;90.56;103624.63;5091340;28;20814;-66
2023/12/17 04:49:36;;;;;;;17.70;13.65;;;;;;;10.01;90.18;103635.72;5091424;28;20035;-66
2023/12/17 04:52:01;;;;;;;14.75;12.98;;;;;;;10.04;90.15;103624.25;5085653;28;20024;-66
2023/12/17 04:54:27;;;;;;;14.85;13.25;;;;;;;10.04;89.83;103635.38;5085141;28;20028;-66
2023/12/17 04:56:54;;;;;;;15.10;13.40;;;;;;;10.02;90.09;103623.59;5071180;28;20123;-66
2023/12/17 04:59:23;;;;;;;18.50;13.93;;;;;;;10.02;90.09;103626.38;5070503;28;20031;-66
2023/12/17 05:01:48;;;;;;;16.88;13.90;;;;;;;10.05;89.94;103628.75;5072381;28;20036;-66
2023/12/17 05:04:16;;;;;;;15.77;13.15;;;;;;;9.98;89.84;103616.69;5072098;28;20024;-66
2023/12/17 05:06:42;;;;;;;16.90;13.52;;;;;;;9.98;89.92;103625.00;5071969;28;20025;-66
2023/12/17 05:09:08;;;;;;;18.90;13.73;;;;;;;9.96;89.93;103624.31;5081589;28;20428;-66
2023/12/17 05:11:34;;;;;;;15.48;13.48;;;;;;;9.97;89.83;103623.25;5079314;28;20030;-66
2023/12/17 05:13:59;;;;;;;17.35;13.90;;;;;;;9.96;89.86;103615.97;5086988;28;20051;-66
2023/12/17 05:16:24;;;;;;;17.42;13.93;;;;;;;9.92;89.28;103611.84;5091212;28;20532;-66
2023/12/17 05:18:50;;;;;;;16.77;14.27;;;;;;;9.92;89.40;103614.63;5091242;28;20044;-66
2023/12/17 05:21:15;;;;;;;18.10;14.95;;;;;;;9.89;89.30;103626.06;5090316;28;20020;-66
2023/12/17 05:23:40;;;;;;;19.45;14.20;;;;;;;9.90;89.46;103622.25;5090120;28;20028;-66
2023/12/17 05:26:06;;;;;;;20.42;14.93;;;;;;;9.91;89.50;103617.59;5090533;28;20743;-66
2023/12/17 05:28:31;;;;;;;19.55;14.77;;;;;;;9.94;89.47;103619.97;5089179;28;20032;-66
2023/12/17 05:30:56;;;;;;;18.42;14.98;;;;;;;9.94;89.33;103612.53;5075156;28;20021;-66
2023/12/17 05:33:21;;;;;;;17.67;15.43;;;;;;;9.93;89.52;103619.13;5088743;28;20125;-66
2023/12/17 05:35:47;;;;;;;18.38;15.05;;;;;;;9.95;89.83;103618.97;5094722;28;20081;-66
2023/12/17 05:38:12;;;;;;;20.42;15.55;;;;;;;9.97;89.47;103614.06;5089503;28;20104;-67
2023/12/17 05:40:37;;;;;;;19.92;15.40;;;;;;;9.96;89.42;103617.91;5086633;28;20028;-66
2023/12/17 05:43:03;;;;;;;18.88;15.07;;;;;;;9.95;89.14;103617.03;5094030;28;20028;-67
2023/12/17 05:45:30;;;;;;;17.58;15.60;;;;;;;9.95;89.08;103621.72;5074770;28;20020;-66
2023/12/17 05:47:56;;;;;;;15.63;14.02;;;;;;;9.94;89.34;103628.31;5082308;28;20070;-66
2023/12/17 05:50:22;;;;;;;16.20;14.40;;;;;;;9.95;88.98;103618.97;5090047;28;20119;-66
2023/12/17 05:52:47;;;;;;;16.10;14.38;;;;;;;9.93;88.92;103613.56;5076806;28;20036;-66
2023/12/17 05:55:13;;;;;;;15.00;13.40;;;;;;;9.96;88.86;103612.34;5082566;28;20020;-66
2023/12/17 05:57:38;;;;;;;16.10;13.50;;;;;;;9.94;88.66;103614.44;5093500;28;20483;-66
2023/12/17 06:00:04;;;;;;;16.00;13.35;;;;;;;9.95;88.66;103607.84;5073935;28;20054;-66
2023/12/17 06:02:29;;;;;;;15.88;12.52;;;;;;;9.95;88.51;103605.94;5076544;28;20670;-66
2023/12/17 06:04:54;;;;;;;15.05;12.30;;;;;;;9.94;88.01;103601.44;5090601;28;20522;-66
2023/12/17 06:07:20;;;;;;;15.10;12.80;;;;;;;9.95;87.86;103603.16;5092479;28;20042;-66
2023/12/17 06:09:48;;;;;;;13.27;11.48;;;;;;;9.94;87.73;103606.09;5090359;28;20035;-66
2023/12/17 06:12:13;;;;;;;13.57;11.27;;;;;;;9.94;87.57;103612.53;5083633;28;20012;-66
2023/12/17 06:14:40;;;;;;;13.50;11.23;;;;;;;9.92;87.35;103603.53;5093606;28;20035;-66
2023/12/17 06:17:08;;;;;;;12.65;10.38;;;;;;;9.94;87.07;103611.66;5093193;28;20127;-66
2023/12/17 06:19:34;;;;;;;12.70;10.88;;;;;;;9.92;86.95;103609.06;5083445;28;20059;-65
2023/12/17 06:22:02;;;;;;;12.38;9.32;;;;;;;9.91;87.29;103612.91;5079994;28;20063;-66
2023/12/17 06:24:28;;;;;;;13.13;9.73;;;;;;;9.91;86.57;103610.13;5072653;28;20027;-67
2023/12/17 06:26:53;;;;;;;11.73;9.65;;;;;;;9.93;86.78;103616.34;5073104;28;20041;-66
2023/12/17 06:29:19;;;;;;;11.30;9.27;;;;;;;9.93;86.52;103619.13;5075517;28;20081;-67
2023/12/17 06:31:44;;;;;;;13.02;10.25;;;;;;;9.89;86.82;103614.97;5092213;28;20020;-67
2023/12/17 06:34:10;;;;;;;12.65;10.27;;;;;;;9.91;86.64;103612.91;5093259;28;20040;-67
2023/12/17 06:36:35;;;;;;;11.05;9.07;;;;;;;9.91;86.68;103612.91;5092679;28;20420;-67
2023/12/17 06:39:00;;;;;;;12.20;10.43;;;;;;;9.93;86.68;103599.69;5088337;28;20024;-67
2023/12/17 06:41:26;;;;;;;13.10;9.70;;;;;;;9.91;86.65;103607.34;5092268;28;20051;-67
2023/12/17 06:43:51;;;;;;;11.35;9.77;;;;;;;9.90;86.47;103613.91;5092700;28;20016;-67
2023/12/17 06:46:16;;;;;;;11.38;10.20;;;;;;;9.90;86.66;103627.78;5093074;28;20038;-67
2023/12/17 06:48:43;;;;;;;10.85;9.68;;;;;;;9.91;86.54;103625.91;5087372;28;20074;-66
2023/12/17 06:51:09;;;;;;;13.25;10.73;;;;;;;9.90;86.57;103615.84;5083668;28;20103;-67
2023/12/17 06:53:34;;;;;;;12.70;10.10;;;;;;;9.90;86.84;103621.38;5093403;28;20098;-66
2023/12/17 06:55:59;;;;;;;12.38;10.68;;;;;;;9.90;86.88;103604.75;5090928;28;20491;-67
2023/12/17 06:58:24;;;;;;;11.18;10.02;;;;;;;9.91;86.85;103609.28;5092795;28;20090;-67
2023/12/17 07:00:50;;;;;;;13.15;11.65;;;;;;;9.90;86.95;103604.75;5092766;28;20116;-67
2023/12/17 07:03:22;;;;;;;13.98;12.48;;;;;;;9.89;87.09;103598.34;5092936;28;20078;-67
2023/12/17 07:05:47;;;;;;;15.65;12.98;;;;;;;9.88;87.00;103602.16;5090305;28;20107;-67
2023/12/17 07:08:12;;;;;;;15.55;12.98;;;;;;;9.83;86.92;103613.81;5080782;28;20020;-67
2023/12/17 07:10:38;;;;;;;15.65;12.20;;;;;;;9.88;87.18;103601.28;5092981;28;20032;-67
2023/12/17 07:13:06;;;;;;;14.40;12.32;;;;;;;9.86;86.61;103604.22;5092119;28;20077;-67
2023/12/17 07:15:31;;;;;;;15.00;12.50;;;;;;;9.81;86.26;103602.00;5092530;28;20090;-67
2023/12/17 07:17:59;;;;;;;13.25;10.80;;;;;;;9.83;86.08;103599.94;5092657;28;20039;-67
2023/12/17 07:20:25;;;;;;;13.05;10.68;;;;;;;9.80;85.79;103607.75;5092122;28;20067;-66
2023/12/17 07:22:50;;;;;;;12.52;11.07;;;;;;;9.84;85.76;103606.34;5091657;28;20036;-67
2023/12/17 07:25:17;;;;;;;12.57;10.95;;;;;;;9.82;85.31;103616.75;5092624;28;20020;-67
2023/12/17 07:27:42;;;;;;;12.25;10.70;;;;;;;9.80;85.27;103611.38;5083228;28;20474;-66
2023/12/17 07:30:08;;;;;;;13.40;11.05;;;;;;;9.78;85.19;103615.38;5091418;28;20020;-67
2023/12/17 07:32:34;;;;;;;12.57;10.15;;;;;;;9.80;85.31;103610.53;5092539;28;20045;-67
2023/12/17 07:34:59;;;;;;;14.93;11.77;;;;;;;9.80;85.37;103610.53;5091779;28;20020;-67
2023/12/17 07:37:24;;;;;;;14.32;11.75;;;;;;;9.80;85.48;103613.31;5090697;28;20107;-66
2023/12/17 07:39:50;;;;;;;14.25;11.60;;;;;;;9.80;85.50;103618.84;5091501;28;20098;-67
2023/12/17 07:42:15;;;;;;;12.57;11.18;;;;;;;9.81;85.45;103626.13;5092242;28;20105;-67
2023/12/17 07:44:40;;;;;;;13.93;11.85;;;;;;;9.79;85.40;103631.00;5084492;28;20405;-66
2023/12/17 07:47:05;;;;;;;15.40;11.70;;;;;;;9.79;85.55;103626.31;5079737;28;20086;-66
2023/12/17 07:49:34;;;;;;;14.27;11.80;;;;;;;9.79;85.45;103631.00;5083688;28;20497;-66
2023/12/17 07:51:59;;;;;;;13.52;11.73;;;;;;;9.75;84.94;103633.25;5081525;28;20373;-66
2023/12/17 07:54:25;;;;;;;14.05;11.82;;;;;;;9.73;85.26;103632.56;5086961;28;20039;-66
2023/12/17 07:56:51;;;;;;;12.70;10.80;;;;;;;9.73;85.22;103621.47;5091279;28;20475;-66
2023/12/17 07:59:16;;;;;;;17.35;12.20;;;;;;;9.67;85.13;103629.63;5091847;28;20022;-66
2023/12/17 08:01:42;;;;;;;14.98;11.27;;;;;;;9.69;85.07;103631.19;5091295;28;20039;-65
2023/12/17 08:04:09;;;;;;;13.80;11.50;;;;;;;9.70;85.19;103627.38;5090771;28;20040;-65
2023/12/17 08:06:34;;;;;;;13.50;10.55;;;;;;;9.69;85.13;103635.88;5082606;28;20028;-65
2023/12/17 08:08:59;;;;;;;12.60;10.85;;;;;;;9.70;85.21;103637.59;5082856;28;20071;-65
2023/12/17 08:11:25;;;;;;;10.88;9.70;;;;;;;9.68;85.42;103640.56;5091744;28;20428;-64
2023/12/17 08:13:50;;;;;;;13.02;10.48;;;;;;;9.70;85.01;103637.59;5091687;28;20040;-64
2023/12/17 08:16:18;;;;;;;12.73;10.80;;;;;;;9.69;84.56;103631.19;5090896;28;20084;-65
2023/12/17 08:18:43;;;;;;;12.30;11.00;;;;;;;9.70;84.78;103634.81;5091495;28;20150;-64
2023/12/17 08:21:08;;;;;;;11.00;9.90;;;;;;;9.67;84.48;103641.63;5091219;28;20107;-65
2023/12/17 08:23:34;;;;;;;11.10;10.00;;;;;;;9.69;84.63;103635.88;5082235;28;20024;-64
2023/12/17 08:25:59;;;;;;;11.55;9.65;;;;;;;9.68;84.20;103635.00;5073808;28;20032;-63
2023/12/17 08:28:25;;;;;;;12.20;10.93;;;;;;;9.68;84.48;103637.78;5085056;28;20102;-64
2023/12/17 08:30:51;;;;;;;11.88;10.60;;;;;;;9.65;84.25;103632.59;5075216;28;20044;-64
2023/12/17 08:33:17;;;;;;;13.45;11.93;;;;;;;9.59;84.19;103642.50;5087307;28;20659;-64
2023/12/17 08:35:45;;;;;;;12.20;10.60;;;;;;;9.61;84.01;103645.09;5087281;28;20032;-63
2023/12/17 08:38:10;;;;;;;13.38;11.15;;;;;;;9.59;83.96;103648.06;5089174;28;21919;-63
2023/12/17 08:40:37;;;;;;;13.93;11.38;;;;;;;9.58;83.93;103649.06;5087346;28;20032;-63
2023/12/17 08:43:07;;;;;;;13.75;12.18;;;;;;;9.59;84.42;103642.50;5086011;28;20115;-63
2023/12/17 08:45:33;;;;;;;13.93;11.88;;;;;;;9.59;83.87;103648.06;5089250;28;20036;-64
2023/12/17 08:47:59;;;;;;;16.65;14.15;;;;;;;9.56;83.66;103653.94;5088068;28;20073;-63
2023/12/17 08:50:24;;;;;;;13.10;11.65;;;;;;;9.59;83.64;103652.75;5075101;28;20472;-63
2023/12/17 08:52:50;;;;;;;17.85;12.93;;;;;;;9.58;83.46;103651.84;5070804;28;20074;-63
2023/12/17 08:55:15;;;;;;;15.38;11.63;;;;;;;9.57;83.30;103652.03;5078590;28;20070;-63
2023/12/17 08:57:40;;;;;;;13.50;11.65;;;;;;;9.56;83.19;103653.09;5084760;28;20040;-63
2023/12/17 09:00:07;;;;;;;12.60;10.55;;;;;;;9.59;83.11;103658.28;5075571;28;20467;-63
2023/12/17 09:02:35;;;;;;;15.65;12.93;;;;;;;9.54;83.17;103650.47;5072136;28;20104;-63
2023/12/17 09:05:01;;;;;;;14.43;12.55;;;;;;;9.55;83.43;103655.00;5075301;28;20059;-64
2023/12/17 09:07:26;;;;;;;13.48;11.65;;;;;;;9.57;83.57;103652.03;5079143;28;20360;-63
2023/12/17 09:09:52;;;;;;;13.00;11.60;;;;;;;9.57;83.06;103652.03;5080303;28;20035;-64
2023/12/17 09:12:17;;;;;;;13.25;11.60;;;;;;;9.59;83.36;103645.28;5083113;28;20035;-65
2023/12/17 09:14:49;;;;;;;16.02;13.35;;;;;;;9.58;83.63;103651.84;5076958;28;20059;-64
2023/12/17 09:17:15;;;;;;;17.00;13.90;;;;;;;9.56;83.46;103653.94;5083907;28;20031;-65
2023/12/17 09:19:40;;;;;;;16.55;13.02;;;;;;;9.57;83.38;103649.25;5083212;28;20037;-65
2023/12/17 09:22:05;;;;;;;17.85;14.02;;;;;;;9.55;83.16;103657.78;5076142;28;20114;-65
2023/12/17 09:24:31;;;;;;;16.92;13.15;;;;;;;9.55;82.95;103649.47;5088582;28;20063;-65
2023/12/17 09:26:56;;;;;;;17.75;13.63;;;;;;;9.47;82.56;103663.34;5074166;28;20040;-64
2023/12/17 09:29:22;;;;;;;17.77;14.63;;;;;;;9.38;82.99;103663.53;5081935;28;20032;-65
2023/12/17 09:31:47;;;;;;;20.23;15.18;;;;;;;9.35;83.21;103653.63;5090847;28;20055;-63
2023/12/17 09:34:15;;;;;;;17.80;14.13;;;;;;;9.29;83.05;103659.91;5086626;28;20028;-64
2023/12/17 09:36:41;;;;;;;18.52;14.48;;;;;;;9.34;83.47;103663.00;5074897;28;20090;-64
2023/12/17 09:39:09;;;;;;;18.23;14.30;;;;;;;9.32;82.54;103656.78;5074531;28;20150;-64
2023/12/17 09:41:35;;;;;;;17.33;13.98;;;;;;;9.30;82.55;103664.41;5090669;28;20035;-66
2023/12/17 09:44:01;;;;;;;19.13;14.27;;;;;;;9.32;83.01;103656.78;5091339;28;20036;-65
2023/12/17 09:46:26;;;;;;;19.35;14.50;;;;;;;9.32;83.06;103663.19;5081947;28;20027;-65
2023/12/17 09:48:52;;;;;;;19.58;15.25;;;;;;;9.36;82.85;103663.72;5089332;28;20576;-64
2023/12/17 09:51:18;;;;;;;17.50;13.82;;;;;;;9.35;82.71;103656.41;5080020;28;20044;-62
2023/12/17 09:53:43;;;;;;;17.85;14.60;;;;;;;9.36;82.42;103662.84;5092342;28;20655;-63
2023/12/17 09:56:10;;;;;;;21.48;15.02;;;;;;;9.28;82.30;103660.97;5094349;28;20036;-63
2023/12/17 09:58:39;;;;;;;23.70;15.65;;;;;;;9.29;82.27;103665.44;5086342;28;20065;-63
2023/12/17 10:01:04;;;;;;;20.10;15.73;;;;;;;9.29;82.58;103662.69;5081677;28;20039;-64
2023/12/17 10:03:30;;;;;;;22.80;16.10;;;;;;;9.30;82.68;103661.63;5081648;28;20089;-63
2023/12/17 10:05:55;;;;;;;19.85;15.60;;;;;;;9.29;82.36;103658.00;5089433;28;20069;-64
2023/12/17 10:08:22;;;;;;;21.45;15.35;;;;;;;9.27;82.48;103662.84;5083821;28;20035;-64
2023/12/17 10:10:48;;;;;;;20.33;15.88;;;;;;;9.26;82.54;103655.56;5073625;28;20024;-64
2023/12/17 10:13:21;;;;;;;20.52;15.98;;;;;;;9.28;82.40;103669.28;5073490;28;20020;-64
2023/12/17 10:15:52;;;;;;;22.77;16.40;;;;;;;9.28;82.01;103667.38;5083673;28;20032;-64
2023/12/17 10:18:18;;;;;;;22.73;16.80;;;;;;;9.26;81.90;103652.81;5073643;28;20032;-64
2023/12/17 10:20:45;;;;;;;23.75;17.70;;;;;;;9.23;82.22;103664.22;5091251;28;20024;-64
2023/12/17 10:23:10;;;;;;;27.80;18.50;;;;;;;9.19;82.27;103671.16;5087502;28;20033;-64
2023/12/17 10:25:35;;;;;;;28.27;18.63;;;;;;;9.25;82.44;103667.72;5086581;28;20708;-65
2023/12/17 10:28:01;;;;;;;24.20;17.70;;;;;;;9.25;82.18;103672.38;5073141;28;20045;-64
2023/12/17 10:30:29;;;;;;;25.77;17.52;;;;;;;9.24;82.05;103663.22;5072208;28;20550;-63
2023/12/17 10:32:56;;;;;;;26.40;18.92;;;;;;;9.26;82.20;103657.47;5080794;28;20028;-63
2023/12/17 10:35:23;;;;;;;27.23;19.38;;;;;;;9.24;81.78;103659.59;5087245;28;20098;-63
2023/12/17 10:37:52;;;;;;;29.02;20.38;;;;;;;9.22;82.56;103650.56;5078897;28;20028;-63
2023/12/17 10:40:18;;;;;;;27.85;19.83;;;;;;;9.27;82.56;103648.13;5088536;28;20534;-64
2023/12/17 10:42:47;;;;;;;31.58;20.77;;;;;;;9.24;81.69;103638.28;5087819;28;20069;-63
2023/12/17 10:45:15;;;;;;;31.85;22.27;;;;;;;9.26;82.14;103636.16;5090758;28;20020;-65
2023/12/17 10:47:40;;;;;;;34.42;21.65;;;;;;;9.39;84.80;103635.63;5076644;28;20036;-63
2023/12/17 10:50:07;;;;;;;33.53;26.35;;;;;;;9.34;82.50;103633.38;5087738;28;20035;-63
2023/12/17 10:52:33;;;;;;;33.70;25.95;;;;;;;9.34;82.18;103626.97;5076978;28;20550;-63
2023/12/17 10:54:59;;;;;;;32.95;21.75;;;;;;;9.37;82.10;103621.09;5086617;28;20024;-64
2023/12/17 10:57:26;;;;;;;31.17;20.58;;;;;;;9.38;81.54;103627.50;5082115;28;20031;-63
2023/12/17 10:59:54;;;;;;;28.48;19.63;;;;;;;9.40;81.57;103619.88;5084262;28;20447;-64
2023/12/17 11:02:22;;;;;;;29.15;18.33;;;;;;;9.43;81.55;103617.63;5090178;28;20035;-66
2023/12/17 11:04:48;;;;;;;30.70;19.13;;;;;;;9.44;81.07;103616.56;5090413;28;20060;-66
2023/12/17 11:07:18;;;;;;;27.25;19.23;;;;;;;9.44;81.51;103611.03;5081675;28;20074;-67